createdAt,value
2018-10-17T00:02:19.475Z,13.90
2018-10-17T00:04:47.969Z,13.90
2018-10-17T00:07:16.751Z,13.90
2018-10-17T00:09:45.260Z,13.80
2018-10-17T00:12:13.777Z,13.80
2018-10-17T00:14:42.308Z,13.80
2018-10-17T00:17:10.899Z,13.80
2018-10-17T00:19:39.493Z,13.70
2018-10-17T00:22:08.565Z,13.70
2018-10-17T00:24:37.104Z,13.60
2018-10-17T00:27:06.084Z,13.60
2018-10-17T00:29:34.633Z,13.60
2018-10-17T00:32:03.164Z,13.60
2018-10-17T00:34:31.732Z,13.50
2018-10-17T00:37:00.388Z,13.50
2018-10-17T00:39:29.127Z,13.50
2018-10-17T00:41:57.667Z,13.50
2018-10-17T00:44:26.636Z,13.40
2018-10-17T00:46:55.171Z,13.40
2018-10-17T00:49:23.988Z,13.50
2018-10-17T00:51:53.263Z,13.40
2018-10-17T00:54:21.925Z,13.40
2018-10-17T00:56:50.820Z,13.40
2018-10-17T00:59:19.397Z,13.40
2018-10-17T01:01:47.906Z,13.50
2018-10-17T01:04:16.488Z,13.40
2018-10-17T01:06:45.014Z,13.40
2018-10-17T01:09:14.693Z,13.40
2018-10-17T01:11:43.407Z,13.40
2018-10-17T01:14:12.160Z,13.30
2018-10-17T01:16:40.828Z,13.40
2018-10-17T01:19:10.495Z,13.40
2018-10-17T01:21:39.435Z,13.40
2018-10-17T01:24:08.009Z,13.40
2018-10-17T01:26:36.817Z,13.40
2018-10-17T01:29:05.672Z,13.40
2018-10-17T01:31:34.372Z,13.40
2018-10-17T01:34:03.211Z,13.50
2018-10-17T01:36:32.220Z,13.50
2018-10-17T01:39:00.857Z,13.60
2018-10-17T01:41:30.670Z,13.60
2018-10-17T01:43:59.277Z,13.60
2018-10-17T01:46:27.880Z,13.70
2018-10-17T01:48:56.564Z,13.70
2018-10-17T01:51:25.414Z,13.70
2018-10-17T01:53:54.156Z,13.70
2018-10-17T01:56:22.909Z,13.70
2018-10-17T01:58:52.888Z,13.70
2018-10-17T02:01:21.599Z,13.70
2018-10-17T02:03:50.163Z,13.80
2018-10-17T02:06:18.700Z,13.80
2018-10-17T02:08:47.217Z,13.80
2018-10-17T02:11:15.771Z,13.80
2018-10-17T02:13:44.221Z,13.80
2018-10-17T02:16:12.757Z,13.70
2018-10-17T02:18:41.240Z,13.70
2018-10-17T02:21:09.702Z,13.70
2018-10-17T02:23:38.216Z,13.70
2018-10-17T02:26:07.005Z,13.60
2018-10-17T02:28:35.741Z,13.60
2018-10-17T02:31:04.531Z,13.50
2018-10-17T02:33:33.073Z,13.50
2018-10-17T02:36:01.598Z,13.50
2018-10-17T02:38:30.085Z,13.40
2018-10-17T02:40:58.721Z,13.40
2018-10-17T02:43:27.146Z,13.40
2018-10-17T02:45:55.655Z,13.30
2018-10-17T02:48:24.128Z,13.30
2018-10-17T02:50:52.727Z,13.20
2018-10-17T02:53:21.228Z,13.10
2018-10-17T02:55:49.694Z,13.10
2018-10-17T02:58:18.199Z,13.10
2018-10-17T03:00:46.686Z,13.00
2018-10-17T03:03:15.216Z,13.00
2018-10-17T03:05:43.692Z,13.00
2018-10-17T03:08:12.205Z,12.90
2018-10-17T03:10:40.676Z,12.90
2018-10-17T03:13:09.287Z,12.90
2018-10-17T03:15:37.724Z,12.80
2018-10-17T03:18:06.256Z,12.80
2018-10-17T03:20:34.829Z,12.80
2018-10-17T03:23:03.375Z,12.80
2018-10-17T03:25:31.952Z,12.70
2018-10-17T03:28:00.665Z,12.80
2018-10-17T03:30:29.178Z,12.70
2018-10-17T03:32:57.820Z,12.70
2018-10-17T03:35:26.319Z,12.70
2018-10-17T03:37:54.804Z,12.70
2018-10-17T03:40:23.382Z,12.60
2018-10-17T03:42:51.934Z,12.60
2018-10-17T03:45:20.539Z,12.60
2018-10-17T03:47:49.030Z,12.60
2018-10-17T03:50:17.545Z,12.60
2018-10-17T03:52:46.047Z,12.60
2018-10-17T03:55:14.617Z,12.60
2018-10-17T03:57:43.102Z,12.60
2018-10-17T04:00:11.654Z,12.60
2018-10-17T04:02:40.202Z,12.60
2018-10-17T04:05:08.897Z,12.50
2018-10-17T04:07:37.404Z,12.50
2018-10-17T04:10:06.328Z,12.50
2018-10-17T04:12:34.861Z,12.50
2018-10-17T04:15:03.420Z,12.50
2018-10-17T04:17:31.969Z,12.50
2018-10-17T04:20:00.540Z,12.50
2018-10-17T04:22:29.108Z,12.50
2018-10-17T04:24:57.629Z,12.60
2018-10-17T04:27:26.115Z,12.60
2018-10-17T04:29:55.860Z,12.60
2018-10-17T04:32:24.698Z,12.60
2018-10-17T04:34:53.338Z,12.60
2018-10-17T04:37:21.875Z,12.60
2018-10-17T04:39:50.394Z,12.60
2018-10-17T04:42:20.037Z,12.60
2018-10-17T04:44:48.540Z,12.60
2018-10-17T04:47:17.130Z,12.60
2018-10-17T04:49:45.605Z,12.60
2018-10-17T04:52:14.129Z,12.50
2018-10-17T04:54:43.663Z,12.60
2018-10-17T04:57:12.237Z,12.60
2018-10-17T04:59:40.771Z,12.60
2018-10-17T05:02:09.293Z,12.60
2018-10-17T05:04:37.933Z,12.60
2018-10-17T05:07:06.660Z,12.60
2018-10-17T05:09:35.139Z,12.60
2018-10-17T05:12:03.680Z,12.60
2018-10-17T05:14:32.197Z,12.60
2018-10-17T05:17:00.741Z,12.60
2018-10-17T05:19:29.242Z,12.60
2018-10-17T05:21:57.761Z,12.50
2018-10-17T05:24:26.264Z,12.60
2018-10-17T05:26:54.793Z,12.50
2018-10-17T05:29:23.325Z,12.40
2018-10-17T05:31:51.996Z,12.40
2018-10-17T05:34:20.528Z,12.40
2018-10-17T05:36:49.050Z,12.50
2018-10-17T05:39:17.589Z,12.50
2018-10-17T05:41:46.183Z,12.40
2018-10-17T05:44:14.742Z,12.40
2018-10-17T05:46:43.281Z,12.40
2018-10-17T05:49:11.862Z,12.40
2018-10-17T05:51:40.354Z,12.40
2018-10-17T05:54:08.872Z,12.40
2018-10-17T05:56:37.404Z,12.40
2018-10-17T05:59:06.029Z,12.40
2018-10-17T06:01:34.644Z,12.40
2018-10-17T06:04:03.118Z,12.40
2018-10-17T06:06:32.294Z,12.40
2018-10-17T06:09:00.900Z,12.40
2018-10-17T06:11:29.393Z,12.40
2018-10-17T06:13:58.064Z,12.40
2018-10-17T06:16:26.622Z,12.40
2018-10-17T06:18:55.216Z,12.40
2018-10-17T06:21:23.717Z,12.40
2018-10-17T06:23:52.205Z,12.50
2018-10-17T06:26:20.929Z,12.50
2018-10-17T06:28:49.435Z,12.50
2018-10-17T06:31:18.049Z,12.50
2018-10-17T06:33:46.684Z,12.60
2018-10-17T06:36:15.185Z,12.60
2018-10-17T06:38:43.693Z,12.60
2018-10-17T06:41:12.458Z,12.70
2018-10-17T06:43:40.881Z,12.70
2018-10-17T06:46:09.346Z,12.80
2018-10-17T06:48:37.960Z,12.90
2018-10-17T06:51:08.181Z,12.90
2018-10-17T06:53:37.715Z,12.90
2018-10-17T06:56:06.926Z,13.00
2018-10-17T06:58:35.420Z,13.10
2018-10-17T07:01:04.044Z,13.10
2018-10-17T07:03:33.498Z,13.20
2018-10-17T07:06:02.052Z,13.30
2018-10-17T07:08:30.598Z,13.30
2018-10-17T07:10:59.155Z,13.40
2018-10-17T07:13:27.698Z,13.40
2018-10-17T07:15:56.305Z,13.50
2018-10-17T07:18:25.463Z,13.60
2018-10-17T07:20:54.896Z,13.70
2018-10-17T07:23:24.232Z,13.80
2018-10-17T07:25:53.606Z,13.80
2018-10-17T07:28:22.864Z,13.90
2018-10-17T07:30:53.299Z,14.00
2018-10-17T07:33:22.783Z,14.10
2018-10-17T07:35:52.237Z,14.10
2018-10-17T07:38:21.519Z,14.20
2018-10-17T07:40:51.086Z,14.20
2018-10-17T07:43:19.669Z,14.30
2018-10-17T07:45:48.239Z,14.40
2018-10-17T07:48:16.800Z,14.40
2018-10-17T07:50:45.335Z,14.50
2018-10-17T07:53:13.917Z,14.60
2018-10-17T07:55:42.405Z,14.70
2018-10-17T07:58:10.951Z,14.70
2018-10-17T08:00:39.474Z,14.80
2018-10-17T08:03:07.960Z,14.90
2018-10-17T08:05:36.448Z,15.00
2018-10-17T08:08:05.621Z,15.10
2018-10-17T08:10:34.863Z,15.20
2018-10-17T08:13:03.977Z,15.30
2018-10-17T08:15:33.393Z,15.30
2018-10-17T08:18:08.415Z,15.40
2018-10-17T08:20:41.815Z,15.50
2018-10-17T08:23:11.309Z,15.50
2018-10-17T08:25:39.838Z,15.60
2018-10-17T08:28:08.554Z,15.70
2018-10-17T08:30:37.068Z,15.70
2018-10-17T08:33:06.251Z,15.70
2018-10-17T08:35:34.914Z,15.80
2018-10-17T08:38:03.340Z,15.80
2018-10-17T08:40:31.898Z,15.80
2018-10-17T08:43:00.393Z,15.80
2018-10-17T08:45:28.999Z,15.80
2018-10-17T08:47:57.550Z,15.80
2018-10-17T08:50:26.356Z,15.80
2018-10-17T08:52:55.180Z,15.80
2018-10-17T08:55:24.319Z,15.80
2018-10-17T08:57:53.412Z,15.80
2018-10-17T09:00:22.322Z,15.80
2018-10-17T09:02:51.029Z,15.80
2018-10-17T09:05:20.157Z,15.90
2018-10-17T09:07:48.978Z,15.90
2018-10-17T09:10:17.793Z,15.90
2018-10-17T09:12:46.515Z,16.00
2018-10-17T09:15:15.709Z,16.00
2018-10-17T09:17:44.284Z,16.10
2018-10-17T09:20:13.419Z,16.10
2018-10-17T09:22:42.009Z,16.20
2018-10-17T09:25:10.545Z,16.30
2018-10-17T09:27:39.147Z,16.40
2018-10-17T09:30:08.892Z,16.50
2018-10-17T09:32:37.416Z,16.50
2018-10-17T09:35:06.803Z,16.60
2018-10-17T09:37:35.642Z,16.70
2018-10-17T09:40:04.295Z,16.70
2018-10-17T09:42:33.067Z,16.80
2018-10-17T09:45:01.658Z,16.80
2018-10-17T09:47:30.242Z,16.90
2018-10-17T09:49:58.748Z,17.00
2018-10-17T09:52:27.347Z,17.00
2018-10-17T09:54:55.922Z,17.10
2018-10-17T09:57:24.554Z,17.20
2018-10-17T09:59:53.138Z,17.30
2018-10-17T10:02:21.714Z,17.40
2018-10-17T10:04:50.291Z,17.40
2018-10-17T10:07:18.852Z,17.50
2018-10-17T10:09:47.374Z,17.50
2018-10-17T10:12:16.091Z,17.70
2018-10-17T10:14:44.561Z,17.70
2018-10-17T10:17:14.019Z,17.80
2018-10-17T10:19:42.833Z,17.90
2018-10-17T10:22:11.516Z,18.00
2018-10-17T10:24:39.979Z,18.00
2018-10-17T10:27:08.749Z,18.10
2018-10-17T10:29:37.382Z,18.10
2018-10-17T10:32:06.147Z,18.20
2018-10-17T10:34:34.735Z,18.20
2018-10-17T10:37:04.525Z,18.40
2018-10-17T10:39:33.205Z,18.40
2018-10-17T10:42:01.844Z,18.50
2018-10-17T10:44:30.407Z,18.60
2018-10-17T10:46:58.955Z,18.70
2018-10-17T10:49:27.612Z,18.70
2018-10-17T10:51:56.136Z,18.80
2018-10-17T10:54:24.691Z,18.90
2018-10-17T10:56:53.210Z,19.00
2018-10-17T10:59:21.875Z,19.10
2018-10-17T11:01:50.268Z,19.20
2018-10-17T11:04:18.814Z,19.30
2018-10-17T11:06:48.004Z,19.40
2018-10-17T11:09:16.552Z,19.50
2018-10-17T11:11:45.069Z,19.50
2018-10-17T11:14:13.759Z,19.50
2018-10-17T11:16:42.204Z,19.50
2018-10-17T11:19:10.744Z,19.60
2018-10-17T11:21:39.287Z,19.60
2018-10-17T11:24:07.827Z,19.70
2018-10-17T11:26:37.130Z,19.70
2018-10-17T11:29:06.010Z,19.70
2018-10-17T11:31:34.682Z,19.70
2018-10-17T11:34:03.324Z,19.80
2018-10-17T11:36:31.879Z,19.90
2018-10-17T11:39:00.420Z,20.00
2018-10-17T11:41:29.105Z,20.00
2018-10-17T11:43:57.559Z,20.10
2018-10-17T11:46:26.119Z,20.20
2018-10-17T11:48:54.655Z,20.20
2018-10-17T11:51:23.171Z,20.20
2018-10-17T11:53:51.677Z,20.30
2018-10-17T11:56:20.190Z,20.20
2018-10-17T11:58:48.683Z,20.30
2018-10-17T12:01:17.189Z,20.30
2018-10-17T12:03:45.795Z,20.30
2018-10-17T12:06:14.335Z,20.30
2018-10-17T12:08:42.842Z,20.30
2018-10-17T12:11:11.396Z,20.30
2018-10-17T12:13:39.922Z,20.40
2018-10-17T12:16:08.433Z,20.40
2018-10-17T12:18:37.732Z,20.40
2018-10-17T12:21:06.661Z,20.40
2018-10-17T12:23:35.139Z,20.50
2018-10-17T12:26:03.650Z,20.50
2018-10-17T12:28:32.387Z,20.50
2018-10-17T12:31:01.538Z,20.60
2018-10-17T12:33:30.303Z,20.60
2018-10-17T12:35:58.890Z,20.60
2018-10-17T12:38:27.432Z,20.60
2018-10-17T12:40:56.233Z,20.60
2018-10-17T12:43:24.662Z,20.70
2018-10-17T12:45:53.233Z,20.70
2018-10-17T12:48:21.780Z,20.80
2018-10-17T12:50:50.284Z,20.70
2018-10-17T12:53:18.843Z,20.70
2018-10-17T12:55:47.387Z,20.80
2018-10-17T12:58:15.925Z,20.80
2018-10-17T13:00:44.451Z,20.80
2018-10-17T13:03:12.992Z,20.80
2018-10-17T13:05:41.539Z,20.80
2018-10-17T13:08:10.088Z,20.80
2018-10-17T13:10:39.068Z,20.90
2018-10-17T13:13:07.667Z,20.90
2018-10-17T13:15:36.162Z,20.90
2018-10-17T13:18:05.595Z,20.90
2018-10-17T13:20:35.411Z,21.00
2018-10-17T13:23:03.963Z,20.90
2018-10-17T13:25:32.497Z,21.00
2018-10-17T13:28:01.031Z,20.90
2018-10-17T13:30:29.540Z,21.00
2018-10-17T13:32:58.099Z,20.90
2018-10-17T13:35:26.698Z,20.90
2018-10-17T13:37:55.173Z,20.90
2018-10-17T13:40:23.728Z,20.90
2018-10-17T13:42:52.329Z,20.90
2018-10-17T13:45:20.842Z,20.90
2018-10-17T13:47:49.387Z,20.90
2018-10-17T13:50:17.911Z,20.90
2018-10-17T13:52:46.443Z,20.90
2018-10-17T13:55:15.056Z,20.90
2018-10-17T13:57:43.599Z,20.80
2018-10-17T14:00:13.220Z,20.80
2018-10-17T14:02:43.241Z,20.80
2018-10-17T14:05:11.910Z,20.80
2018-10-17T14:07:40.493Z,20.80
2018-10-17T14:10:09.078Z,20.80
2018-10-17T14:12:37.655Z,20.70
2018-10-17T14:15:06.450Z,20.70
2018-10-17T14:17:35.027Z,20.70
2018-10-17T14:20:03.973Z,20.70
2018-10-17T14:22:32.522Z,20.60
2018-10-17T14:25:01.103Z,20.70
2018-10-17T14:27:29.693Z,20.70
2018-10-17T14:29:58.272Z,20.60
2018-10-17T14:32:26.864Z,20.60
2018-10-17T14:34:55.344Z,20.50
2018-10-17T14:37:25.557Z,20.50
2018-10-17T14:39:54.156Z,20.50
2018-10-17T14:42:22.777Z,20.40
2018-10-17T14:44:51.292Z,20.40
2018-10-17T14:47:20.901Z,20.30
2018-10-17T14:49:49.570Z,20.20
2018-10-17T14:52:18.118Z,20.10
2018-10-17T14:54:46.655Z,20.00
2018-10-17T14:57:15.246Z,20.00
2018-10-17T14:59:43.757Z,19.90
2018-10-17T15:02:12.300Z,19.80
2018-10-17T15:04:40.891Z,19.70
2018-10-17T15:07:09.414Z,19.70
2018-10-17T15:09:38.005Z,19.60
2018-10-17T15:12:06.719Z,19.50
2018-10-17T15:14:35.141Z,19.50
2018-10-17T15:17:03.697Z,19.40
2018-10-17T15:19:32.262Z,19.40
2018-10-17T15:22:00.844Z,19.30
2018-10-17T15:24:29.401Z,19.30
2018-10-17T15:26:58.007Z,19.20
2018-10-17T15:29:26.495Z,19.20
2018-10-17T15:31:55.095Z,19.10
2018-10-17T15:34:23.553Z,19.10
2018-10-17T15:36:52.233Z,19.10
2018-10-17T15:39:20.735Z,19.00
2018-10-17T15:41:49.386Z,18.90
2018-10-17T15:44:17.957Z,18.90
2018-10-17T15:46:46.508Z,18.90
2018-10-17T15:49:15.111Z,18.80
2018-10-17T15:51:43.829Z,18.70
2018-10-17T15:54:12.409Z,18.70
2018-10-17T15:56:40.997Z,18.60
2018-10-17T15:59:09.670Z,18.60
2018-10-17T16:01:38.220Z,18.50
2018-10-17T16:04:07.812Z,18.50
2018-10-17T16:06:39.359Z,18.40
2018-10-17T16:09:10.619Z,18.30
2018-10-17T16:11:39.388Z,18.30
2018-10-17T16:14:07.939Z,18.20
2018-10-17T16:16:36.527Z,18.10
2018-10-17T16:19:05.918Z,18.00
2018-10-17T16:21:34.910Z,17.90
2018-10-17T16:24:03.602Z,17.90
2018-10-17T16:26:32.550Z,17.80
2018-10-17T16:29:01.579Z,17.70
2018-10-17T16:31:30.230Z,17.70
2018-10-17T16:33:58.948Z,17.60
2018-10-17T16:36:27.534Z,17.50
2018-10-17T16:39:01.727Z,17.50
2018-10-17T16:41:30.338Z,17.40
2018-10-17T16:43:58.781Z,17.40
2018-10-17T16:46:27.340Z,17.30
2018-10-17T16:48:55.983Z,17.20
2018-10-17T16:51:24.494Z,17.20
2018-10-17T16:53:53.063Z,17.10
2018-10-17T16:56:21.587Z,17.00
2018-10-17T16:58:50.143Z,17.00
2018-10-17T17:01:18.688Z,17.00
2018-10-17T17:03:47.232Z,16.90
2018-10-17T17:06:15.856Z,16.90
2018-10-17T17:08:44.384Z,16.90
2018-10-17T17:11:13.029Z,16.80
2018-10-17T17:13:41.584Z,16.80
2018-10-17T17:16:10.688Z,16.80
2018-10-17T17:18:39.206Z,16.80
2018-10-17T17:21:07.746Z,16.80
2018-10-17T17:23:36.259Z,16.80
2018-10-17T17:26:04.788Z,16.80
2018-10-17T17:28:33.331Z,16.70
2018-10-17T17:31:01.849Z,16.80
2018-10-17T17:33:30.406Z,16.70
2018-10-17T17:35:58.965Z,16.70
2018-10-17T17:38:27.505Z,16.70
2018-10-17T17:40:57.136Z,16.60
2018-10-17T17:43:25.681Z,16.60
2018-10-17T17:45:54.264Z,16.60
2018-10-17T17:48:22.814Z,16.50
2018-10-17T17:50:51.329Z,16.50
2018-10-17T17:53:20.175Z,16.50
2018-10-17T17:55:48.716Z,16.50
2018-10-17T17:58:17.338Z,16.40
2018-10-17T18:00:45.901Z,16.40
2018-10-17T18:03:14.379Z,16.40
2018-10-17T18:05:42.948Z,16.30
2018-10-17T18:08:11.735Z,16.30
2018-10-17T18:10:40.266Z,16.30
2018-10-17T18:13:08.847Z,16.30
2018-10-17T18:15:37.394Z,16.20
2018-10-17T18:18:05.968Z,16.20
2018-10-17T18:20:34.508Z,16.20
2018-10-17T18:23:03.042Z,16.20
2018-10-17T18:25:32.230Z,16.10
2018-10-17T18:28:01.459Z,16.10
2018-10-17T18:30:30.051Z,16.10
2018-10-17T18:32:58.604Z,16.10
2018-10-17T18:35:27.926Z,16.00
2018-10-17T18:37:56.465Z,16.00
2018-10-17T18:40:25.026Z,16.00
2018-10-17T18:42:53.560Z,15.90
2018-10-17T18:45:22.197Z,15.90
2018-10-17T18:47:50.711Z,15.90
2018-10-17T18:50:19.276Z,15.80
2018-10-17T18:52:47.917Z,15.80
2018-10-17T18:55:17.016Z,15.80
2018-10-17T18:57:45.543Z,15.70
2018-10-17T19:00:14.101Z,15.70
2018-10-17T19:02:42.605Z,15.60
2018-10-17T19:05:11.175Z,15.70
2018-10-17T19:07:39.728Z,15.60
2018-10-17T19:10:08.323Z,15.60
2018-10-17T19:12:36.842Z,15.60
2018-10-17T19:15:06.877Z,15.60
2018-10-17T19:17:36.014Z,15.60
2018-10-17T19:20:04.953Z,15.50
2018-10-17T19:22:33.804Z,15.50
2018-10-17T19:25:02.342Z,15.50
2018-10-17T19:27:30.836Z,15.50
2018-10-17T19:29:59.423Z,15.40
2018-10-17T19:32:27.930Z,15.40
2018-10-17T19:34:57.522Z,15.40
2018-10-17T19:37:26.031Z,15.40
2018-10-17T19:39:54.603Z,15.40
2018-10-17T19:42:23.144Z,15.40
2018-10-17T19:44:51.744Z,15.40
2018-10-17T19:47:20.289Z,15.30
2018-10-17T19:49:49.550Z,15.30
2018-10-17T19:52:18.439Z,15.20
2018-10-17T19:54:46.988Z,15.20
2018-10-17T19:57:15.594Z,15.20
2018-10-17T19:59:44.350Z,15.10
2018-10-17T20:02:12.958Z,15.10
2018-10-17T20:04:41.550Z,15.10
2018-10-17T20:07:10.074Z,15.10
2018-10-17T20:09:38.639Z,15.10
2018-10-17T20:12:07.260Z,15.00
2018-10-17T20:14:35.801Z,15.00
2018-10-17T20:17:04.312Z,15.00
2018-10-17T20:19:32.820Z,14.90
2018-10-17T20:22:01.324Z,14.90
2018-10-17T20:24:29.835Z,14.90
2018-10-17T20:26:58.408Z,14.90
2018-10-17T20:29:26.917Z,14.90
2018-10-17T20:31:55.625Z,14.90
2018-10-17T20:34:24.207Z,14.90
2018-10-17T20:36:52.800Z,14.90
2018-10-17T20:39:21.404Z,15.00
2018-10-17T20:41:49.995Z,15.00
2018-10-17T20:44:18.559Z,15.10
2018-10-17T20:46:47.143Z,15.10
2018-10-17T20:49:15.637Z,15.10
2018-10-17T20:51:44.181Z,15.20
2018-10-17T20:54:12.718Z,15.20
2018-10-17T20:56:41.331Z,15.20
2018-10-17T20:59:09.876Z,15.30
2018-10-17T21:01:38.359Z,15.30
2018-10-17T21:04:06.727Z,15.30
2018-10-17T21:06:35.247Z,15.30
2018-10-17T21:09:04.852Z,15.30
2018-10-17T21:11:33.451Z,15.30
2018-10-17T21:14:01.967Z,15.30
2018-10-17T21:16:30.590Z,15.40
2018-10-17T21:18:59.145Z,15.40
2018-10-17T21:21:27.674Z,15.40
2018-10-17T21:23:56.241Z,15.40
2018-10-17T21:26:24.838Z,15.40
2018-10-17T21:28:53.369Z,15.40
2018-10-17T21:31:21.928Z,15.40
2018-10-17T21:33:50.905Z,15.40
2018-10-17T21:36:20.740Z,15.40
2018-10-17T21:38:49.699Z,15.40
2018-10-17T21:41:18.303Z,15.40
2018-10-17T21:43:47.424Z,15.40
2018-10-17T21:46:15.971Z,15.40
2018-10-17T21:48:44.698Z,15.40
2018-10-17T21:51:13.623Z,15.40
2018-10-17T21:53:42.197Z,15.40
2018-10-17T21:56:10.786Z,15.40
2018-10-17T21:58:39.300Z,15.40
2018-10-17T22:01:08.055Z,15.40
2018-10-17T22:03:36.611Z,15.30
2018-10-17T22:06:05.281Z,15.40
2018-10-17T22:08:33.813Z,15.40
2018-10-17T22:11:02.357Z,15.40
2018-10-17T22:13:30.971Z,15.30
2018-10-17T22:16:00.177Z,15.40
2018-10-17T22:18:28.843Z,15.40
2018-10-17T22:20:57.365Z,15.40
2018-10-17T22:23:25.909Z,15.40
2018-10-17T22:25:54.461Z,15.40
2018-10-17T22:28:24.023Z,15.40
2018-10-17T22:30:52.633Z,15.40
2018-10-17T22:33:22.574Z,15.30
2018-10-17T22:35:51.304Z,15.40
2018-10-17T22:38:19.986Z,15.40
2018-10-17T22:40:48.579Z,15.30
2018-10-17T22:43:18.089Z,15.40
2018-10-17T22:45:46.812Z,15.40
2018-10-17T22:48:16.170Z,15.30
2018-10-17T22:50:44.735Z,15.40
2018-10-17T22:53:13.290Z,15.40
2018-10-17T22:55:41.965Z,15.40
2018-10-17T22:58:11.079Z,15.40
2018-10-17T23:00:39.666Z,15.40
2018-10-17T23:03:08.208Z,15.40
2018-10-17T23:05:38.017Z,15.40
2018-10-17T23:08:06.735Z,15.40
2018-10-17T23:10:35.410Z,15.40
2018-10-17T23:13:04.674Z,15.40
2018-10-17T23:15:33.239Z,15.40
2018-10-17T23:18:02.491Z,15.30
2018-10-17T23:20:31.102Z,15.30
2018-10-17T23:23:00.715Z,15.30
2018-10-17T23:25:29.360Z,15.30
2018-10-17T23:27:57.975Z,15.30
2018-10-17T23:30:26.582Z,15.30
2018-10-17T23:32:55.298Z,15.30
2018-10-17T23:35:23.995Z,15.30
2018-10-17T23:37:52.533Z,15.30
2018-10-17T23:40:21.727Z,15.30
2018-10-17T23:42:50.259Z,15.30
2018-10-17T23:45:18.852Z,15.30
2018-10-17T23:47:47.396Z,15.40
2018-10-17T23:50:16.158Z,15.40
2018-10-17T23:52:45.693Z,15.30
2018-10-17T23:55:14.753Z,15.40
2018-10-17T23:57:43.795Z,15.30
